Seymour, TX (76380)

5:00 PM CDT on August 30, 2014 (GMT -0500)
WT_Meso 3NW Seymour | Change Station
CLOSE
Current Station
Personal Weather Station
Location: Seymour, TX
Elevation: 1421 ft
Nearby Weather Stations

Elev 1421 ft 33.63 °N, 99.29 °W | Updated 35 minutes ago

Clear
Clear
95 °F
Feels Like 95 °F
N
4
Wind Variable Wind from SSE
Gusts 7.0 mph

Today
High -- | Low -- °F
--% Chance of Precip.
Yesterday
High -- | Low -- °F
Precip. -- in
7:09 AM 8:04 PM
Waxing Crescent, 25% visible
Pressure 29.89 in
Visibility 10.0 miles
Clouds Scattered Clouds 8000 ft
Scattered Clouds 10000 ft
Heat Index 95 °F
Dew Point 59 °F
Humidity 32%
Rainfall -999.00 in
Snow Depth Not available.
UV 5 out of 12
Pollen 10.00 out of 12
Air Quality Not available.
Flu Activity Not available.
METAR KF05 302135Z AUTO 16004KT 10SM SCT080 SCT100 36/14 A2989 RMK AO1 T03570138

More Conditions Fewer Conditions

Pressure 29.89 in
Visibility 10.0 miles
Clouds Scattered Clouds 8000 ft
Scattered Clouds 10000 ft
Heat Index 95 °F
Dew Point 59 °F
Humidity 32%
Rainfall -999.00 in
Snow Depth Not available.
UV 5 out of 12
Pollen 10.00 out of 12
Air Quality Not available.
Flu Activity Not available.
METAR KF05 302135Z AUTO 16004KT 10SM SCT080 SCT100 36/14 A2989 RMK AO1 T03570138

More Conditions Fewer Conditions

10-Day Weather Forecast

Almanac

Astronomy

Aug. 30, 2014 Rise Set
Actual Time 7:09 AM CDT 8:04 PM CDT
Civil Twilight 6:44 AM CDT 8:30 PM CDT
Nautical Twilight 6:14 AM CDT 9:00 PM CDT
Astronomical Twilight 5:42 AM CDT 9:31 PM CDT
Moon 11:43 AM CDT 10:56 PM CDT
Length of Visible Light 13h 46m
Length of Day
12h 55m
Tomorrow will be 1m 59s shorter.
Waxing Crescent, 25% of the Moon is Illuminated
Today
Waxing Crescent
Sep 2
First Quarter
Sep 8
Full
Sep 15
Last Quarter
Sep 24
New

Today's Extremes

State Highs State Lows

Community

WunderPhotos

Upload Photos

1,748,657 photos uploaded!

WunderBlogs® & News

Nearby

Snow Depth

Station Depth Elevation
No new snow has been reported.

Earthquake Activity

City Distance Mag. Time & Date
No recent earthquake activity has been reported nearby.
Minimum magnitude displayed is 2.5.

Coastal Water Temperatures

Place Temperature
No Stations Reporting

Nearby Weather Stations